sensor_id;sensor_type;location;lat;lon;timestamp;P1;durP1;ratioP1;P2;durP2;ratioP2
79487;SDS011;68949;53.176;18.088;2024-02-28T00:00:47;31.90;;;11.10;;
79487;SDS011;68949;53.176;18.088;2024-02-28T00:03:34;36.30;;;13.40;;
79487;SDS011;68949;53.176;18.088;2024-02-28T00:06:01;31.70;;;12.70;;
79487;SDS011;68949;53.176;18.088;2024-02-28T00:08:27;34.80;;;12.50;;
79487;SDS011;68949;53.176;18.088;2024-02-28T00:10:54;33.40;;;11.80;;
79487;SDS011;68949;53.176;18.088;2024-02-28T00:13:21;31.40;;;10.80;;
79487;SDS011;68949;53.176;18.088;2024-02-28T00:15:49;32.10;;;11.90;;
79487;SDS011;68949;53.176;18.088;2024-02-28T00:18:16;29.40;;;11.60;;
79487;SDS011;68949;53.176;18.088;2024-02-28T00:20:45;29.30;;;9.80;;
79487;SDS011;68949;53.176;18.088;2024-02-28T00:23:12;19.50;;;7.20;;
79487;SDS011;68949;53.176;18.088;2024-02-28T00:25:39;24.80;;;9.00;;
79487;SDS011;68949;53.176;18.088;2024-02-28T00:28:06;33.40;;;11.60;;
79487;SDS011;68949;53.176;18.088;2024-02-28T00:30:33;31.80;;;12.70;;
79487;SDS011;68949;53.176;18.088;2024-02-28T00:33:00;29.30;;;10.90;;
79487;SDS011;68949;53.176;18.088;2024-02-28T00:35:26;33.70;;;11.90;;
79487;SDS011;68949;53.176;18.088;2024-02-28T00:37:53;32.20;;;11.90;;
79487;SDS011;68949;53.176;18.088;2024-02-28T00:40:20;32.30;;;12.50;;
79487;SDS011;68949;53.176;18.088;2024-02-28T00:42:47;36.30;;;13.30;;
79487;SDS011;68949;53.176;18.088;2024-02-28T00:45:14;32.90;;;12.30;;
79487;SDS011;68949;53.176;18.088;2024-02-28T00:47:41;36.30;;;13.80;;
79487;SDS011;68949;53.176;18.088;2024-02-28T00:50:08;34.70;;;12.80;;
79487;SDS011;68949;53.176;18.088;2024-02-28T00:52:36;35.10;;;12.70;;
79487;SDS011;68949;53.176;18.088;2024-02-28T00:55:03;23.70;;;9.50;;
79487;SDS011;68949;53.176;18.088;2024-02-28T00:57:31;31.90;;;11.80;;
79487;SDS011;68949;53.176;18.088;2024-02-28T00:59:59;28.70;;;10.70;;
79487;SDS011;68949;53.176;18.088;2024-02-28T01:02:26;29.80;;;11.70;;
79487;SDS011;68949;53.176;18.088;2024-02-28T01:04:52;29.60;;;11.30;;
79487;SDS011;68949;53.176;18.088;2024-02-28T01:07:19;30.10;;;11.30;;
79487;SDS011;68949;53.176;18.088;2024-02-28T01:09:46;31.60;;;11.90;;
79487;SDS011;68949;53.176;18.088;2024-02-28T01:12:12;36.10;;;13.20;;
79487;SDS011;68949;53.176;18.088;2024-02-28T01:14:39;36.40;;;11.70;;
79487;SDS011;68949;53.176;18.088;2024-02-28T01:17:06;34.60;;;11.70;;
79487;SDS011;68949;53.176;18.088;2024-02-28T01:19:33;28.70;;;10.40;;
79487;SDS011;68949;53.176;18.088;2024-02-28T01:21:59;25.80;;;9.70;;
79487;SDS011;68949;53.176;18.088;2024-02-28T01:24:26;22.30;;;9.00;;
79487;SDS011;68949;53.176;18.088;2024-02-28T01:26:53;28.80;;;11.10;;
79487;SDS011;68949;53.176;18.088;2024-02-28T01:29:20;22.10;;;8.20;;
79487;SDS011;68949;53.176;18.088;2024-02-28T01:31:46;28.70;;;10.80;;
79487;SDS011;68949;53.176;18.088;2024-02-28T01:34:13;24.60;;;9.30;;
79487;SDS011;68949;53.176;18.088;2024-02-28T01:36:40;31.00;;;10.90;;
79487;SDS011;68949;53.176;18.088;2024-02-28T01:39:07;31.40;;;11.30;;
79487;SDS011;68949;53.176;18.088;2024-02-28T01:41:34;33.10;;;12.70;;
79487;SDS011;68949;53.176;18.088;2024-02-28T01:44:01;28.20;;;11.10;;
79487;SDS011;68949;53.176;18.088;2024-02-28T01:46:29;32.10;;;11.70;;
79487;SDS011;68949;53.176;18.088;2024-02-28T01:48:56;26.90;;;10.00;;
79487;SDS011;68949;53.176;18.088;2024-02-28T01:51:26;30.40;;;11.20;;
79487;SDS011;68949;53.176;18.088;2024-02-28T01:53:57;26.00;;;10.00;;
79487;SDS011;68949;53.176;18.088;2024-02-28T01:56:24;30.20;;;11.20;;
79487;SDS011;68949;53.176;18.088;2024-02-28T01:58:54;27.60;;;10.90;;
79487;SDS011;68949;53.176;18.088;2024-02-28T02:01:22;33.40;;;13.00;;
79487;SDS011;68949;53.176;18.088;2024-02-28T02:03:51;31.10;;;11.40;;
79487;SDS011;68949;53.176;18.088;2024-02-28T02:06:20;18.80;;;7.10;;
79487;SDS011;68949;53.176;18.088;2024-02-28T02:08:48;22.00;;;7.50;;
79487;SDS011;68949;53.176;18.088;2024-02-28T02:11:17;23.80;;;8.80;;
79487;SDS011;68949;53.176;18.088;2024-02-28T02:13:51;27.00;;;10.20;;
79487;SDS011;68949;53.176;18.088;2024-02-28T02:16:19;28.00;;;10.40;;
79487;SDS011;68949;53.176;18.088;2024-02-28T02:18:52;26.70;;;11.00;;
79487;SDS011;68949;53.176;18.088;2024-02-28T02:21:23;22.20;;;7.30;;
79487;SDS011;68949;53.176;18.088;2024-02-28T02:23:51;22.60;;;8.80;;
79487;SDS011;68949;53.176;18.088;2024-02-28T02:26:17;21.40;;;8.50;;
79487;SDS011;68949;53.176;18.088;2024-02-28T02:29:05;25.20;;;9.50;;
79487;SDS011;68949;53.176;18.088;2024-02-28T02:31:34;26.00;;;9.10;;
79487;SDS011;68949;53.176;18.088;2024-02-28T02:34:01;21.20;;;8.40;;
79487;SDS011;68949;53.176;18.088;2024-02-28T02:36:28;19.80;;;8.10;;
79487;SDS011;68949;53.176;18.088;2024-02-28T02:38:54;16.70;;;5.80;;
79487;SDS011;68949;53.176;18.088;2024-02-28T02:41:21;23.40;;;7.80;;
79487;SDS011;68949;53.176;18.088;2024-02-28T02:43:48;24.10;;;8.30;;
79487;SDS011;68949;53.176;18.088;2024-02-28T02:46:14;25.00;;;8.90;;
79487;SDS011;68949;53.176;18.088;2024-02-28T02:48:41;23.80;;;8.50;;
79487;SDS011;68949;53.176;18.088;2024-02-28T02:51:08;26.60;;;8.90;;
79487;SDS011;68949;53.176;18.088;2024-02-28T02:53:34;20.60;;;7.40;;
79487;SDS011;68949;53.176;18.088;2024-02-28T02:56:04;20.10;;;6.40;;
79487;SDS011;68949;53.176;18.088;2024-02-28T02:58:31;24.60;;;9.10;;
79487;SDS011;68949;53.176;18.088;2024-02-28T03:01:01;15.30;;;5.10;;
79487;SDS011;68949;53.176;18.088;2024-02-28T03:03:28;21.80;;;8.30;;
79487;SDS011;68949;53.176;18.088;2024-02-28T03:05:55;25.70;;;10.00;;
79487;SDS011;68949;53.176;18.088;2024-02-28T03:08:21;24.10;;;8.80;;
79487;SDS011;68949;53.176;18.088;2024-02-28T03:10:48;23.50;;;9.40;;
79487;SDS011;68949;53.176;18.088;2024-02-28T03:13:15;27.10;;;8.90;;
79487;SDS011;68949;53.176;18.088;2024-02-28T03:15:42;25.30;;;8.40;;
79487;SDS011;68949;53.176;18.088;2024-02-28T03:18:08;25.50;;;8.90;;
79487;SDS011;68949;53.176;18.088;2024-02-28T03:20:35;25.00;;;9.10;;
79487;SDS011;68949;53.176;18.088;2024-02-28T03:23:05;12.80;;;4.40;;
79487;SDS011;68949;53.176;18.088;2024-02-28T03:25:34;17.80;;;6.10;;
79487;SDS011;68949;53.176;18.088;2024-02-28T03:28:03;24.70;;;8.90;;
79487;SDS011;68949;53.176;18.088;2024-02-28T03:30:34;23.60;;;7.80;;
79487;SDS011;68949;53.176;18.088;2024-02-28T03:33:01;26.20;;;8.50;;
79487;SDS011;68949;53.176;18.088;2024-02-28T03:35:33;26.70;;;8.60;;
79487;SDS011;68949;53.176;18.088;2024-02-28T03:38:00;20.70;;;6.60;;
79487;SDS011;68949;53.176;18.088;2024-02-28T03:40:29;29.80;;;9.90;;
79487;SDS011;68949;53.176;18.088;2024-02-28T03:42:57;28.90;;;9.50;;
79487;SDS011;68949;53.176;18.088;2024-02-28T03:45:28;22.00;;;7.90;;
79487;SDS011;68949;53.176;18.088;2024-02-28T03:47:56;28.80;;;8.30;;
79487;SDS011;68949;53.176;18.088;2024-02-28T03:50:25;33.00;;;10.00;;
79487;SDS011;68949;53.176;18.088;2024-02-28T03:52:52;29.90;;;8.20;;
79487;SDS011;68949;53.176;18.088;2024-02-28T03:55:19;31.40;;;9.40;;
79487;SDS011;68949;53.176;18.088;2024-02-28T03:57:48;19.20;;;6.40;;
79487;SDS011;68949;53.176;18.088;2024-02-28T04:00:15;28.40;;;8.60;;
79487;SDS011;68949;53.176;18.088;2024-02-28T04:02:42;23.40;;;7.70;;
79487;SDS011;68949;53.176;18.088;2024-02-28T04:05:10;27.70;;;9.20;;
79487;SDS011;68949;53.176;18.088;2024-02-28T04:07:36;32.20;;;10.40;;
79487;SDS011;68949;53.176;18.088;2024-02-28T04:10:03;24.90;;;8.50;;
79487;SDS011;68949;53.176;18.088;2024-02-28T04:12:31;28.60;;;9.30;;
79487;SDS011;68949;53.176;18.088;2024-02-28T04:14:59;25.90;;;9.20;;
79487;SDS011;68949;53.176;18.088;2024-02-28T04:17:26;28.80;;;8.70;;
79487;SDS011;68949;53.176;18.088;2024-02-28T04:19:55;28.80;;;10.40;;
79487;SDS011;68949;53.176;18.088;2024-02-28T04:22:24;25.10;;;9.30;;
79487;SDS011;68949;53.176;18.088;2024-02-28T04:24:50;24.40;;;9.10;;
79487;SDS011;68949;53.176;18.088;2024-02-28T04:27:17;28.70;;;9.40;;
79487;SDS011;68949;53.176;18.088;2024-02-28T04:29:44;23.90;;;8.60;;
79487;SDS011;68949;53.176;18.088;2024-02-28T04:32:11;31.20;;;10.30;;
79487;SDS011;68949;53.176;18.088;2024-02-28T04:34:38;28.60;;;10.00;;
79487;SDS011;68949;53.176;18.088;2024-02-28T04:37:05;28.10;;;10.20;;
79487;SDS011;68949;53.176;18.088;2024-02-28T04:39:31;27.50;;;9.70;;
79487;SDS011;68949;53.176;18.088;2024-02-28T04:41:58;28.30;;;9.60;;
79487;SDS011;68949;53.176;18.088;2024-02-28T04:44:25;24.70;;;7.90;;
79487;SDS011;68949;53.176;18.088;2024-02-28T04:46:52;19.10;;;6.60;;
79487;SDS011;68949;53.176;18.088;2024-02-28T04:49:19;25.10;;;9.60;;
79487;SDS011;68949;53.176;18.088;2024-02-28T04:51:47;27.20;;;10.00;;
79487;SDS011;68949;53.176;18.088;2024-02-28T04:54:14;26.40;;;10.60;;
79487;SDS011;68949;53.176;18.088;2024-02-28T04:56:43;30.10;;;10.30;;
79487;SDS011;68949;53.176;18.088;2024-02-28T04:59:12;29.90;;;10.60;;
79487;SDS011;68949;53.176;18.088;2024-02-28T05:01:39;29.20;;;10.50;;
79487;SDS011;68949;53.176;18.088;2024-02-28T05:04:09;27.10;;;10.10;;
79487;SDS011;68949;53.176;18.088;2024-02-28T05:06:36;29.20;;;9.60;;
79487;SDS011;68949;53.176;18.088;2024-02-28T05:09:03;27.90;;;10.70;;
79487;SDS011;68949;53.176;18.088;2024-02-28T05:11:30;28.20;;;9.20;;
79487;SDS011;68949;53.176;18.088;2024-02-28T05:13:57;28.90;;;10.90;;
79487;SDS011;68949;53.176;18.088;2024-02-28T05:16:23;25.00;;;9.20;;
79487;SDS011;68949;53.176;18.088;2024-02-28T05:18:50;30.50;;;10.70;;
79487;SDS011;68949;53.176;18.088;2024-02-28T05:21:17;30.30;;;9.70;;
79487;SDS011;68949;53.176;18.088;2024-02-28T05:23:44;24.10;;;7.60;;
79487;SDS011;68949;53.176;18.088;2024-02-28T05:26:10;17.60;;;5.40;;
79487;SDS011;68949;53.176;18.088;2024-02-28T05:28:38;24.10;;;7.50;;
79487;SDS011;68949;53.176;18.088;2024-02-28T05:31:20;29.20;;;9.60;;
79487;SDS011;68949;53.176;18.088;2024-02-28T05:33:53;27.50;;;9.10;;
79487;SDS011;68949;53.176;18.088;2024-02-28T05:36:25;26.10;;;9.80;;
79487;SDS011;68949;53.176;18.088;2024-02-28T05:38:54;26.00;;;9.60;;
79487;SDS011;68949;53.176;18.088;2024-02-28T05:41:23;28.40;;;10.20;;
79487;SDS011;68949;53.176;18.088;2024-02-28T05:43:50;28.80;;;9.90;;
79487;SDS011;68949;53.176;18.088;2024-02-28T05:46:17;28.90;;;9.90;;
79487;SDS011;68949;53.176;18.088;2024-02-28T05:48:45;26.70;;;9.50;;
79487;SDS011;68949;53.176;18.088;2024-02-28T05:51:13;29.10;;;9.50;;
79487;SDS011;68949;53.176;18.088;2024-02-28T05:53:41;27.40;;;8.60;;
79487;SDS011;68949;53.176;18.088;2024-02-28T05:56:09;27.00;;;9.00;;
79487;SDS011;68949;53.176;18.088;2024-02-28T05:58:45;24.60;;;7.90;;
79487;SDS011;68949;53.176;18.088;2024-02-28T06:01:15;28.70;;;9.10;;
79487;SDS011;68949;53.176;18.088;2024-02-28T06:03:47;13.00;;;3.60;;
79487;SDS011;68949;53.176;18.088;2024-02-28T06:06:15;14.70;;;4.60;;
79487;SDS011;68949;53.176;18.088;2024-02-28T06:08:43;25.40;;;7.70;;
79487;SDS011;68949;53.176;18.088;2024-02-28T06:11:12;22.90;;;7.20;;
79487;SDS011;68949;53.176;18.088;2024-02-28T06:13:41;23.70;;;7.50;;
79487;SDS011;68949;53.176;18.088;2024-02-28T06:16:07;24.70;;;8.50;;
79487;SDS011;68949;53.176;18.088;2024-02-28T06:18:40;26.10;;;8.30;;
79487;SDS011;68949;53.176;18.088;2024-02-28T06:21:07;22.00;;;5.80;;
79487;SDS011;68949;53.176;18.088;2024-02-28T06:23:33;20.20;;;6.20;;
79487;SDS011;68949;53.176;18.088;2024-02-28T06:26:00;20.50;;;5.70;;
79487;SDS011;68949;53.176;18.088;2024-02-28T06:28:28;17.80;;;5.90;;
79487;SDS011;68949;53.176;18.088;2024-02-28T06:30:55;19.20;;;6.30;;
79487;SDS011;68949;53.176;18.088;2024-02-28T06:33:21;19.50;;;6.00;;
79487;SDS011;68949;53.176;18.088;2024-02-28T06:35:48;24.00;;;7.30;;
79487;SDS011;68949;53.176;18.088;2024-02-28T06:38:15;22.00;;;5.90;;
79487;SDS011;68949;53.176;18.088;2024-02-28T06:40:42;22.10;;;6.60;;
79487;SDS011;68949;53.176;18.088;2024-02-28T06:43:08;21.00;;;7.60;;
79487;SDS011;68949;53.176;18.088;2024-02-28T06:45:35;20.40;;;7.30;;
79487;SDS011;68949;53.176;18.088;2024-02-28T06:48:03;15.90;;;5.20;;
79487;SDS011;68949;53.176;18.088;2024-02-28T06:50:30;21.40;;;7.20;;
79487;SDS011;68949;53.176;18.088;2024-02-28T06:52:57;18.50;;;6.30;;
79487;SDS011;68949;53.176;18.088;2024-02-28T06:55:23;24.70;;;6.90;;
79487;SDS011;68949;53.176;18.088;2024-02-28T06:57:50;17.40;;;5.10;;
79487;SDS011;68949;53.176;18.088;2024-02-28T07:00:17;22.10;;;7.30;;
79487;SDS011;68949;53.176;18.088;2024-02-28T07:02:45;22.30;;;6.50;;
79487;SDS011;68949;53.176;18.088;2024-02-28T07:05:12;13.80;;;4.10;;
79487;SDS011;68949;53.176;18.088;2024-02-28T07:07:39;26.20;;;8.00;;
79487;SDS011;68949;53.176;18.088;2024-02-28T07:10:06;24.70;;;8.60;;
79487;SDS011;68949;53.176;18.088;2024-02-28T07:12:33;21.10;;;6.60;;
79487;SDS011;68949;53.176;18.088;2024-02-28T07:15:00;19.60;;;5.80;;
79487;SDS011;68949;53.176;18.088;2024-02-28T07:17:27;21.90;;;5.50;;
79487;SDS011;68949;53.176;18.088;2024-02-28T07:19:53;23.00;;;7.00;;
79487;SDS011;68949;53.176;18.088;2024-02-28T07:22:20;14.20;;;4.60;;
79487;SDS011;68949;53.176;18.088;2024-02-28T07:24:47;12.70;;;4.30;;
79487;SDS011;68949;53.176;18.088;2024-02-28T07:27:14;20.00;;;6.70;;
79487;SDS011;68949;53.176;18.088;2024-02-28T07:29:42;21.20;;;6.70;;
79487;SDS011;68949;53.176;18.088;2024-02-28T07:32:09;26.30;;;8.50;;
79487;SDS011;68949;53.176;18.088;2024-02-28T07:34:36;24.90;;;8.00;;
79487;SDS011;68949;53.176;18.088;2024-02-28T07:37:03;26.20;;;8.80;;
79487;SDS011;68949;53.176;18.088;2024-02-28T07:39:30;23.80;;;7.90;;
79487;SDS011;68949;53.176;18.088;2024-02-28T07:41:57;25.50;;;9.10;;
79487;SDS011;68949;53.176;18.088;2024-02-28T07:44:25;25.10;;;8.60;;
79487;SDS011;68949;53.176;18.088;2024-02-28T07:46:53;15.00;;;5.00;;
79487;SDS011;68949;53.176;18.088;2024-02-28T07:49:21;15.20;;;4.60;;
79487;SDS011;68949;53.176;18.088;2024-02-28T07:51:48;23.30;;;7.60;;
79487;SDS011;68949;53.176;18.088;2024-02-28T07:54:14;19.40;;;7.10;;
79487;SDS011;68949;53.176;18.088;2024-02-28T07:56:44;17.10;;;6.30;;
79487;SDS011;68949;53.176;18.088;2024-02-28T07:59:13;21.90;;;7.90;;
79487;SDS011;68949;53.176;18.088;2024-02-28T08:01:40;18.60;;;6.60;;
79487;SDS011;68949;53.176;18.088;2024-02-28T08:04:06;24.30;;;8.70;;
79487;SDS011;68949;53.176;18.088;2024-02-28T08:06:34;19.10;;;7.20;;
79487;SDS011;68949;53.176;18.088;2024-02-28T08:09:01;11.40;;;3.80;;
79487;SDS011;68949;53.176;18.088;2024-02-28T08:11:30;18.80;;;7.60;;
79487;SDS011;68949;53.176;18.088;2024-02-28T08:13:59;19.40;;;6.90;;
79487;SDS011;68949;53.176;18.088;2024-02-28T08:16:27;14.70;;;4.60;;
79487;SDS011;68949;53.176;18.088;2024-02-28T08:18:54;17.60;;;6.50;;
79487;SDS011;68949;53.176;18.088;2024-02-28T08:21:21;21.00;;;7.50;;
79487;SDS011;68949;53.176;18.088;2024-02-28T08:23:49;13.40;;;4.80;;
79487;SDS011;68949;53.176;18.088;2024-02-28T08:26:16;16.60;;;5.30;;
79487;SDS011;68949;53.176;18.088;2024-02-28T08:28:43;18.10;;;6.60;;
79487;SDS011;68949;53.176;18.088;2024-02-28T08:31:09;17.80;;;5.80;;
79487;SDS011;68949;53.176;18.088;2024-02-28T08:33:36;22.40;;;8.10;;
79487;SDS011;68949;53.176;18.088;2024-02-28T08:36:05;20.10;;;6.80;;
79487;SDS011;68949;53.176;18.088;2024-02-28T08:38:31;21.00;;;6.70;;
79487;SDS011;68949;53.176;18.088;2024-02-28T08:41:01;20.80;;;8.10;;
79487;SDS011;68949;53.176;18.088;2024-02-28T08:43:28;16.90;;;6.60;;
79487;SDS011;68949;53.176;18.088;2024-02-28T08:45:54;18.90;;;7.10;;
79487;SDS011;68949;53.176;18.088;2024-02-28T08:48:21;13.60;;;4.70;;
79487;SDS011;68949;53.176;18.088;2024-02-28T08:50:49;19.90;;;7.20;;
79487;SDS011;68949;53.176;18.088;2024-02-28T08:53:16;21.50;;;8.60;;
79487;SDS011;68949;53.176;18.088;2024-02-28T08:55:43;20.00;;;7.50;;
79487;SDS011;68949;53.176;18.088;2024-02-28T08:58:09;15.40;;;6.00;;
79487;SDS011;68949;53.176;18.088;2024-02-28T09:00:37;13.10;;;5.10;;
79487;SDS011;68949;53.176;18.088;2024-02-28T09:03:04;16.30;;;4.70;;
79487;SDS011;68949;53.176;18.088;2024-02-28T09:05:31;15.10;;;6.40;;
79487;SDS011;68949;53.176;18.088;2024-02-28T09:07:59;15.30;;;6.60;;
79487;SDS011;68949;53.176;18.088;2024-02-28T09:10:26;18.60;;;6.90;;
79487;SDS011;68949;53.176;18.088;2024-02-28T09:12:52;18.40;;;7.10;;
79487;SDS011;68949;53.176;18.088;2024-02-28T09:15:19;16.60;;;6.40;;
79487;SDS011;68949;53.176;18.088;2024-02-28T09:17:46;16.60;;;5.50;;
79487;SDS011;68949;53.176;18.088;2024-02-28T09:20:13;13.90;;;5.30;;
79487;SDS011;68949;53.176;18.088;2024-02-28T09:22:39;12.40;;;4.70;;
79487;SDS011;68949;53.176;18.088;2024-02-28T09:25:07;19.30;;;5.70;;
79487;SDS011;68949;53.176;18.088;2024-02-28T09:27:36;15.20;;;5.90;;
79487;SDS011;68949;53.176;18.088;2024-02-28T09:30:03;16.80;;;6.10;;
79487;SDS011;68949;53.176;18.088;2024-02-28T09:32:30;13.10;;;5.60;;
79487;SDS011;68949;53.176;18.088;2024-02-28T09:34:57;18.90;;;7.50;;
79487;SDS011;68949;53.176;18.088;2024-02-28T09:37:24;13.10;;;4.30;;
79487;SDS011;68949;53.176;18.088;2024-02-28T09:39:51;14.10;;;6.00;;
79487;SDS011;68949;53.176;18.088;2024-02-28T09:42:19;14.80;;;6.00;;
79487;SDS011;68949;53.176;18.088;2024-02-28T09:44:46;15.50;;;5.60;;
79487;SDS011;68949;53.176;18.088;2024-02-28T09:47:12;12.10;;;4.60;;
79487;SDS011;68949;53.176;18.088;2024-02-28T09:49:42;13.40;;;4.80;;
79487;SDS011;68949;53.176;18.088;2024-02-28T09:52:09;16.00;;;6.10;;
79487;SDS011;68949;53.176;18.088;2024-02-28T09:54:36;12.00;;;3.80;;
79487;SDS011;68949;53.176;18.088;2024-02-28T09:57:04;14.20;;;4.30;;
79487;SDS011;68949;53.176;18.088;2024-02-28T09:59:31;18.60;;;6.30;;
79487;SDS011;68949;53.176;18.088;2024-02-28T10:01:59;18.30;;;6.00;;
79487;SDS011;68949;53.176;18.088;2024-02-28T10:04:27;15.00;;;5.90;;
79487;SDS011;68949;53.176;18.088;2024-02-28T10:06:54;15.50;;;5.20;;
79487;SDS011;68949;53.176;18.088;2024-02-28T10:09:21;14.70;;;4.80;;
79487;SDS011;68949;53.176;18.088;2024-02-28T10:11:47;16.60;;;6.20;;
79487;SDS011;68949;53.176;18.088;2024-02-28T10:14:18;25.90;;;8.50;;
79487;SDS011;68949;53.176;18.088;2024-02-28T10:16:46;22.00;;;8.60;;
79487;SDS011;68949;53.176;18.088;2024-02-28T10:19:12;22.40;;;9.20;;
79487;SDS011;68949;53.176;18.088;2024-02-28T10:21:40;23.50;;;8.70;;
79487;SDS011;68949;53.176;18.088;2024-02-28T10:24:06;20.70;;;7.30;;
79487;SDS011;68949;53.176;18.088;2024-02-28T10:26:42;18.80;;;6.00;;
79487;SDS011;68949;53.176;18.088;2024-02-28T10:29:10;17.80;;;5.70;;
79487;SDS011;68949;53.176;18.088;2024-02-28T10:31:37;12.80;;;4.10;;
79487;SDS011;68949;53.176;18.088;2024-02-28T10:34:03;18.50;;;5.80;;
79487;SDS011;68949;53.176;18.088;2024-02-28T10:36:32;15.70;;;5.30;;
79487;SDS011;68949;53.176;18.088;2024-02-28T10:39:00;14.30;;;4.90;;
79487;SDS011;68949;53.176;18.088;2024-02-28T10:41:28;17.90;;;6.60;;
79487;SDS011;68949;53.176;18.088;2024-02-28T10:43:55;16.60;;;6.30;;
79487;SDS011;68949;53.176;18.088;2024-02-28T10:46:22;17.80;;;6.20;;
79487;SDS011;68949;53.176;18.088;2024-02-28T10:48:51;18.30;;;6.50;;
79487;SDS011;68949;53.176;18.088;2024-02-28T10:51:23;16.20;;;6.30;;
79487;SDS011;68949;53.176;18.088;2024-02-28T10:56:40;15.50;;;5.70;;
79487;SDS011;68949;53.176;18.088;2024-02-28T10:59:10;18.00;;;6.90;;
79487;SDS011;68949;53.176;18.088;2024-02-28T11:01:40;11.80;;;4.20;;
79487;SDS011;68949;53.176;18.088;2024-02-28T11:04:15;18.70;;;5.80;;
79487;SDS011;68949;53.176;18.088;2024-02-28T11:06:48;14.40;;;6.10;;
79487;SDS011;68949;53.176;18.088;2024-02-28T11:09:21;15.40;;;6.10;;
79487;SDS011;68949;53.176;18.088;2024-02-28T11:11:58;15.50;;;6.20;;
79487;SDS011;68949;53.176;18.088;2024-02-28T11:14:25;15.80;;;6.00;;
79487;SDS011;68949;53.176;18.088;2024-02-28T11:17:00;16.10;;;6.20;;
79487;SDS011;68949;53.176;18.088;2024-02-28T11:19:28;14.50;;;6.10;;
79487;SDS011;68949;53.176;18.088;2024-02-28T11:21:58;13.10;;;5.90;;
79487;SDS011;68949;53.176;18.088;2024-02-28T11:24:32;15.40;;;6.60;;
79487;SDS011;68949;53.176;18.088;2024-02-28T11:27:01;13.80;;;5.10;;
79487;SDS011;68949;53.176;18.088;2024-02-28T11:29:29;15.50;;;6.40;;
79487;SDS011;68949;53.176;18.088;2024-02-28T11:31:56;12.50;;;5.50;;
79487;SDS011;68949;53.176;18.088;2024-02-28T11:34:23;14.80;;;6.20;;
79487;SDS011;68949;53.176;18.088;2024-02-28T11:36:50;14.10;;;5.80;;
79487;SDS011;68949;53.176;18.088;2024-02-28T11:39:19;15.80;;;5.90;;
79487;SDS011;68949;53.176;18.088;2024-02-28T11:41:47;14.80;;;5.50;;
79487;SDS011;68949;53.176;18.088;2024-02-28T11:44:16;13.50;;;5.70;;
79487;SDS011;68949;53.176;18.088;2024-02-28T11:46:48;13.70;;;5.40;;
79487;SDS011;68949;53.176;18.088;2024-02-28T11:49:16;17.00;;;6.20;;
79487;SDS011;68949;53.176;18.088;2024-02-28T11:51:43;15.90;;;5.90;;
79487;SDS011;68949;53.176;18.088;2024-02-28T11:54:11;14.30;;;6.00;;
79487;SDS011;68949;53.176;18.088;2024-02-28T11:56:38;16.00;;;6.90;;
79487;SDS011;68949;53.176;18.088;2024-02-28T11:59:06;15.60;;;6.20;;
79487;SDS011;68949;53.176;18.088;2024-02-28T12:01:40;18.50;;;7.20;;
79487;SDS011;68949;53.176;18.088;2024-02-28T12:04:08;15.20;;;6.80;;
79487;SDS011;68949;53.176;18.088;2024-02-28T12:06:37;14.50;;;6.90;;
79487;SDS011;68949;53.176;18.088;2024-02-28T12:09:08;15.30;;;6.70;;
79487;SDS011;68949;53.176;18.088;2024-02-28T12:11:37;15.50;;;6.80;;
79487;SDS011;68949;53.176;18.088;2024-02-28T12:14:04;15.50;;;6.30;;
79487;SDS011;68949;53.176;18.088;2024-02-28T12:16:41;12.90;;;4.90;;
79487;SDS011;68949;53.176;18.088;2024-02-28T12:19:10;15.30;;;6.80;;
79487;SDS011;68949;53.176;18.088;2024-02-28T12:21:39;13.50;;;6.20;;
79487;SDS011;68949;53.176;18.088;2024-02-28T12:24:07;15.90;;;6.20;;
79487;SDS011;68949;53.176;18.088;2024-02-28T12:26:39;11.70;;;5.50;;
79487;SDS011;68949;53.176;18.088;2024-02-28T12:29:07;16.50;;;6.90;;
79487;SDS011;68949;53.176;18.088;2024-02-28T12:31:37;18.70;;;8.70;;
79487;SDS011;68949;53.176;18.088;2024-02-28T12:34:03;15.20;;;7.50;;
79487;SDS011;68949;53.176;18.088;2024-02-28T12:36:30;14.20;;;6.30;;
79487;SDS011;68949;53.176;18.088;2024-02-28T12:38:58;17.90;;;7.50;;
79487;SDS011;68949;53.176;18.088;2024-02-28T12:41:26;13.90;;;6.50;;
79487;SDS011;68949;53.176;18.088;2024-02-28T12:43:54;16.30;;;6.70;;
79487;SDS011;68949;53.176;18.088;2024-02-28T12:46:21;17.40;;;6.70;;
79487;SDS011;68949;53.176;18.088;2024-02-28T12:48:47;13.90;;;6.50;;
79487;SDS011;68949;53.176;18.088;2024-02-28T12:51:36;14.10;;;5.70;;
79487;SDS011;68949;53.176;18.088;2024-02-28T12:54:08;13.90;;;5.80;;
79487;SDS011;68949;53.176;18.088;2024-02-28T12:56:36;15.40;;;5.90;;
79487;SDS011;68949;53.176;18.088;2024-02-28T12:59:04;13.70;;;5.70;;
79487;SDS011;68949;53.176;18.088;2024-02-28T13:01:32;12.70;;;5.80;;
79487;SDS011;68949;53.176;18.088;2024-02-28T13:03:59;13.90;;;6.90;;
79487;SDS011;68949;53.176;18.088;2024-02-28T13:06:26;15.00;;;6.00;;
79487;SDS011;68949;53.176;18.088;2024-02-28T13:08:54;13.90;;;5.70;;
79487;SDS011;68949;53.176;18.088;2024-02-28T13:11:22;16.10;;;6.70;;
79487;SDS011;68949;53.176;18.088;2024-02-28T13:13:51;14.70;;;6.20;;
79487;SDS011;68949;53.176;18.088;2024-02-28T13:16:19;14.70;;;6.00;;
79487;SDS011;68949;53.176;18.088;2024-02-28T13:18:48;13.30;;;5.80;;
79487;SDS011;68949;53.176;18.088;2024-02-28T13:21:15;13.70;;;5.20;;
79487;SDS011;68949;53.176;18.088;2024-02-28T13:23:41;14.00;;;5.80;;
79487;SDS011;68949;53.176;18.088;2024-02-28T13:26:08;13.30;;;6.40;;
79487;SDS011;68949;53.176;18.088;2024-02-28T13:28:35;13.50;;;6.20;;
79487;SDS011;68949;53.176;18.088;2024-02-28T13:31:03;16.10;;;5.60;;
79487;SDS011;68949;53.176;18.088;2024-02-28T13:33:33;13.40;;;5.60;;
79487;SDS011;68949;53.176;18.088;2024-02-28T13:35:59;15.00;;;6.60;;
79487;SDS011;68949;53.176;18.088;2024-02-28T13:38:26;17.80;;;8.80;;
79487;SDS011;68949;53.176;18.088;2024-02-28T13:40:53;17.40;;;8.20;;
79487;SDS011;68949;53.176;18.088;2024-02-28T13:43:19;15.90;;;7.30;;
79487;SDS011;68949;53.176;18.088;2024-02-28T13:45:48;16.10;;;7.40;;
79487;SDS011;68949;53.176;18.088;2024-02-28T13:48:20;16.20;;;6.90;;
79487;SDS011;68949;53.176;18.088;2024-02-28T13:50:50;13.20;;;6.00;;
79487;SDS011;68949;53.176;18.088;2024-02-28T13:53:18;12.00;;;5.20;;
79487;SDS011;68949;53.176;18.088;2024-02-28T13:55:45;14.90;;;5.90;;
79487;SDS011;68949;53.176;18.088;2024-02-28T13:58:12;11.90;;;4.80;;
79487;SDS011;68949;53.176;18.088;2024-02-28T14:00:40;13.10;;;6.00;;
79487;SDS011;68949;53.176;18.088;2024-02-28T14:03:08;15.10;;;6.30;;
79487;SDS011;68949;53.176;18.088;2024-02-28T14:05:35;13.50;;;5.80;;
79487;SDS011;68949;53.176;18.088;2024-02-28T14:08:03;12.30;;;5.30;;
79487;SDS011;68949;53.176;18.088;2024-02-28T14:10:30;16.10;;;5.30;;
79487;SDS011;68949;53.176;18.088;2024-02-28T14:12:57;14.00;;;6.10;;
79487;SDS011;68949;53.176;18.088;2024-02-28T14:15:25;13.00;;;6.80;;
79487;SDS011;68949;53.176;18.088;2024-02-28T14:17:51;14.50;;;6.50;;
79487;SDS011;68949;53.176;18.088;2024-02-28T14:20:18;14.60;;;6.00;;
79487;SDS011;68949;53.176;18.088;2024-02-28T14:22:45;8.30;;;3.90;;
79487;SDS011;68949;53.176;18.088;2024-02-28T14:25:13;15.00;;;5.60;;